sensor_id;sensor_type;location;lat;lon;timestamp;pressure;altitude;pressure_sealevel;temperature;humidity
65013;BME280;51715;39.432;-77.518;2023-04-22T00:01:10;98999.34;;;27.90;20.26
65013;BME280;51715;39.432;-77.518;2023-04-22T00:03:40;98995.52;;;28.09;20.60
65013;BME280;51715;39.432;-77.518;2023-04-22T00:06:10;98997.85;;;28.30;20.54
65013;BME280;51715;39.432;-77.518;2023-04-22T00:08:40;98996.48;;;27.87;20.85
65013;BME280;51715;39.432;-77.518;2023-04-22T00:11:11;99000.76;;;28.08;20.18
65013;BME280;51715;39.432;-77.518;2023-04-22T00:13:40;99004.47;;;27.69;20.32
65013;BME280;51715;39.432;-77.518;2023-04-22T00:16:09;99007.63;;;27.56;20.32
65013;BME280;51715;39.432;-77.518;2023-04-22T00:18:37;99007.19;;;27.63;20.88
65013;BME280;51715;39.432;-77.518;2023-04-22T00:21:07;99010.35;;;27.41;20.92
65013;BME280;51715;39.432;-77.518;2023-04-22T00:23:36;99011.82;;;27.59;21.10
65013;BME280;51715;39.432;-77.518;2023-04-22T00:26:04;99013.08;;;26.88;20.89
65013;BME280;51715;39.432;-77.518;2023-04-22T00:28:33;99009.41;;;27.12;20.65
65013;BME280;51715;39.432;-77.518;2023-04-22T00:31:01;99010.73;;;27.57;20.56
65013;BME280;51715;39.432;-77.518;2023-04-22T00:33:30;99013.43;;;28.10;19.33
65013;BME280;51715;39.432;-77.518;2023-04-22T00:35:58;99014.40;;;27.95;19.11
65013;BME280;51715;39.432;-77.518;2023-04-22T00:38:26;99015.66;;;27.62;19.27
65013;BME280;51715;39.432;-77.518;2023-04-22T00:40:55;99020.28;;;27.75;20.12
65013;BME280;51715;39.432;-77.518;2023-04-22T00:43:24;99016.57;;;28.01;19.19
65013;BME280;51715;39.432;-77.518;2023-04-22T00:45:53;99021.55;;;27.27;20.26
65013;BME280;51715;39.432;-77.518;2023-04-22T00:48:21;99018.18;;;27.39;19.91
65013;BME280;51715;39.432;-77.518;2023-04-22T00:50:51;99021.16;;;27.42;19.87
65013;BME280;51715;39.432;-77.518;2023-04-22T00:53:19;99021.57;;;27.36;19.19
65013;BME280;51715;39.432;-77.518;2023-04-22T00:55:48;99027.38;;;27.09;21.42
65013;BME280;51715;39.432;-77.518;2023-04-22T00:58:18;99022.02;;;26.72;21.12
65013;BME280;51715;39.432;-77.518;2023-04-22T01:00:49;99028.51;;;26.68;20.54
65013;BME280;51715;39.432;-77.518;2023-04-22T01:03:19;99029.40;;;27.00;19.98
65013;BME280;51715;39.432;-77.518;2023-04-22T01:05:49;99023.14;;;27.63;21.46
65013;BME280;51715;39.432;-77.518;2023-04-22T01:08:19;99023.52;;;27.27;20.01
65013;BME280;51715;39.432;-77.518;2023-04-22T01:10:47;99024.25;;;26.52;22.35
65013;BME280;51715;39.432;-77.518;2023-04-22T01:13:16;99025.06;;;26.78;20.68
65013;BME280;51715;39.432;-77.518;2023-04-22T01:15:44;99022.52;;;26.73;21.20
65013;BME280;51715;39.432;-77.518;2023-04-22T01:18:14;99025.79;;;26.91;20.71
65013;BME280;51715;39.432;-77.518;2023-04-22T01:20:43;99026.91;;;27.05;20.54
65013;BME280;51715;39.432;-77.518;2023-04-22T01:23:17;99030.12;;;27.08;20.03
65013;BME280;51715;39.432;-77.518;2023-04-22T01:25:46;99029.90;;;26.74;20.75
65013;BME280;51715;39.432;-77.518;2023-04-22T01:28:16;99032.19;;;26.80;21.50
65013;BME280;51715;39.432;-77.518;2023-04-22T01:30:45;99030.25;;;26.87;22.20
65013;BME280;51715;39.432;-77.518;2023-04-22T01:33:18;99023.93;;;26.75;22.66
65013;BME280;51715;39.432;-77.518;2023-04-22T01:35:46;99032.72;;;26.41;22.88
65013;BME280;51715;39.432;-77.518;2023-04-22T01:38:14;99022.72;;;26.41;22.21
65013;BME280;51715;39.432;-77.518;2023-04-22T01:40:43;99022.06;;;26.48;21.87
65013;BME280;51715;39.432;-77.518;2023-04-22T01:43:12;99024.90;;;26.41;21.38
65013;BME280;51715;39.432;-77.518;2023-04-22T01:45:40;99025.36;;;26.63;21.78
65013;BME280;51715;39.432;-77.518;2023-04-22T01:48:10;99024.62;;;26.67;22.03
65013;BME280;51715;39.432;-77.518;2023-04-22T01:50:38;99029.82;;;26.85;22.02
65013;BME280;51715;39.432;-77.518;2023-04-22T01:53:07;99031.41;;;27.10;22.13
65013;BME280;51715;39.432;-77.518;2023-04-22T01:55:35;99030.47;;;26.59;21.85
65013;BME280;51715;39.432;-77.518;2023-04-22T01:58:06;99030.98;;;26.30;23.41
65013;BME280;51715;39.432;-77.518;2023-04-22T02:00:35;99032.54;;;26.75;23.28
65013;BME280;51715;39.432;-77.518;2023-04-22T02:03:04;99031.82;;;26.08;24.34
65013;BME280;51715;39.432;-77.518;2023-04-22T02:05:33;99029.90;;;25.68;24.68
65013;BME280;51715;39.432;-77.518;2023-04-22T02:08:01;99026.75;;;25.59;23.08
65013;BME280;51715;39.432;-77.518;2023-04-22T02:10:29;99026.06;;;25.99;24.05
65013;BME280;51715;39.432;-77.518;2023-04-22T02:12:58;99025.77;;;25.94;23.26
65013;BME280;51715;39.432;-77.518;2023-04-22T02:15:28;99024.20;;;25.88;23.50
65013;BME280;51715;39.432;-77.518;2023-04-22T02:17:57;99021.54;;;25.59;23.98
65013;BME280;51715;39.432;-77.518;2023-04-22T02:20:25;99018.61;;;26.07;23.41
65013;BME280;51715;39.432;-77.518;2023-04-22T02:22:54;99014.81;;;26.79;23.31
65013;BME280;51715;39.432;-77.518;2023-04-22T02:25:23;99010.17;;;26.67;22.38
65013;BME280;51715;39.432;-77.518;2023-04-22T02:27:51;99007.29;;;26.57;23.03
65013;BME280;51715;39.432;-77.518;2023-04-22T02:30:20;99002.00;;;26.41;22.66
65013;BME280;51715;39.432;-77.518;2023-04-22T02:32:48;98999.09;;;26.52;23.35
65013;BME280;51715;39.432;-77.518;2023-04-22T02:35:17;98996.39;;;25.74;24.37
65013;BME280;51715;39.432;-77.518;2023-04-22T02:37:46;98994.54;;;26.16;23.96
65013;BME280;51715;39.432;-77.518;2023-04-22T02:40:15;98993.43;;;25.03;24.62
65013;BME280;51715;39.432;-77.518;2023-04-22T02:42:43;98998.44;;;25.77;23.88
65013;BME280;51715;39.432;-77.518;2023-04-22T02:45:13;98997.98;;;25.03;25.16
65013;BME280;51715;39.432;-77.518;2023-04-22T02:47:41;98998.16;;;25.37;25.52
65013;BME280;51715;39.432;-77.518;2023-04-22T02:50:10;98993.22;;;25.40;24.61
65013;BME280;51715;39.432;-77.518;2023-04-22T02:52:39;98988.23;;;25.78;24.41
65013;BME280;51715;39.432;-77.518;2023-04-22T02:55:09;98994.60;;;26.05;24.32
65013;BME280;51715;39.432;-77.518;2023-04-22T02:57:37;98997.16;;;26.21;23.96
65013;BME280;51715;39.432;-77.518;2023-04-22T03:00:08;98987.05;;;25.79;24.24
65013;BME280;51715;39.432;-77.518;2023-04-22T03:02:36;98990.99;;;24.96;24.67
65013;BME280;51715;39.432;-77.518;2023-04-22T03:05:05;98996.44;;;25.29;24.80
65013;BME280;51715;39.432;-77.518;2023-04-22T03:07:33;98991.00;;;25.51;24.82
65013;BME280;51715;39.432;-77.518;2023-04-22T03:10:02;98993.94;;;24.62;25.85
65013;BME280;51715;39.432;-77.518;2023-04-22T03:12:31;98993.77;;;25.01;25.21
65013;BME280;51715;39.432;-77.518;2023-04-22T03:15:01;98993.82;;;25.18;25.77
65013;BME280;51715;39.432;-77.518;2023-04-22T03:17:30;98995.17;;;24.72;25.24
65013;BME280;51715;39.432;-77.518;2023-04-22T03:19:58;98993.30;;;25.05;24.94
65013;BME280;51715;39.432;-77.518;2023-04-22T03:22:27;98987.38;;;25.27;25.02
65013;BME280;51715;39.432;-77.518;2023-04-22T03:24:55;98990.32;;;24.98;24.71
65013;BME280;51715;39.432;-77.518;2023-04-22T03:27:24;98986.61;;;25.11;25.13
65013;BME280;51715;39.432;-77.518;2023-04-22T03:29:52;98977.93;;;24.75;24.57
65013;BME280;51715;39.432;-77.518;2023-04-22T03:32:20;98978.85;;;25.60;24.00
65013;BME280;51715;39.432;-77.518;2023-04-22T03:34:48;98976.37;;;24.93;24.05
65013;BME280;51715;39.432;-77.518;2023-04-22T03:37:18;98971.00;;;25.77;24.32
65013;BME280;51715;39.432;-77.518;2023-04-22T03:39:46;98965.36;;;25.85;23.59
65013;BME280;51715;39.432;-77.518;2023-04-22T03:42:14;98967.35;;;25.88;23.54
65013;BME280;51715;39.432;-77.518;2023-04-22T03:44:43;98965.92;;;25.55;25.32
65013;BME280;51715;39.432;-77.518;2023-04-22T03:47:11;98969.69;;;25.65;23.95
65013;BME280;51715;39.432;-77.518;2023-04-22T03:49:39;98967.91;;;25.88;23.75
65013;BME280;51715;39.432;-77.518;2023-04-22T03:52:06;98960.73;;;24.30;24.75
65013;BME280;51715;39.432;-77.518;2023-04-22T03:54:35;98959.00;;;24.75;25.56
65013;BME280;51715;39.432;-77.518;2023-04-22T03:57:03;98957.55;;;25.25;24.20
65013;BME280;51715;39.432;-77.518;2023-04-22T03:59:32;98957.99;;;25.52;24.27
65013;BME280;51715;39.432;-77.518;2023-04-22T04:03:58;98957.36;;;25.90;23.16
65013;BME280;51715;39.432;-77.518;2023-04-22T04:06:28;98958.54;;;25.77;23.80
65013;BME280;51715;39.432;-77.518;2023-04-22T04:08:56;98958.43;;;25.74;24.02
65013;BME280;51715;39.432;-77.518;2023-04-22T04:11:25;98958.63;;;24.94;24.39
65013;BME280;51715;39.432;-77.518;2023-04-22T04:13:53;98961.54;;;25.47;24.52
65013;BME280;51715;39.432;-77.518;2023-04-22T04:16:23;98959.97;;;25.51;24.66
65013;BME280;51715;39.432;-77.518;2023-04-22T04:18:51;98964.19;;;25.60;24.73
65013;BME280;51715;39.432;-77.518;2023-04-22T04:21:20;98969.81;;;25.23;25.01
65013;BME280;51715;39.432;-77.518;2023-04-22T04:23:48;98970.81;;;24.86;25.35
65013;BME280;51715;39.432;-77.518;2023-04-22T04:26:17;98970.83;;;24.89;25.73
65013;BME280;51715;39.432;-77.518;2023-04-22T04:28:49;98969.25;;;24.69;25.68
65013;BME280;51715;39.432;-77.518;2023-04-22T04:31:18;98969.34;;;24.46;26.13
65013;BME280;51715;39.432;-77.518;2023-04-22T04:33:46;98962.79;;;24.53;25.68
65013;BME280;51715;39.432;-77.518;2023-04-22T04:36:15;98963.66;;;24.85;26.12
65013;BME280;51715;39.432;-77.518;2023-04-22T04:38:43;98958.84;;;24.48;25.82
65013;BME280;51715;39.432;-77.518;2023-04-22T04:41:11;98963.77;;;24.45;26.59
65013;BME280;51715;39.432;-77.518;2023-04-22T04:43:40;98963.42;;;24.02;26.42
65013;BME280;51715;39.432;-77.518;2023-04-22T04:46:09;98964.34;;;24.32;26.44
65013;BME280;51715;39.432;-77.518;2023-04-22T04:48:37;98965.37;;;24.26;26.57
65013;BME280;51715;39.432;-77.518;2023-04-22T04:51:05;98972.20;;;23.38;27.84
65013;BME280;51715;39.432;-77.518;2023-04-22T04:53:33;98970.15;;;23.65;27.39
65013;BME280;51715;39.432;-77.518;2023-04-22T04:56:01;98979.48;;;23.66;27.66
65013;BME280;51715;39.432;-77.518;2023-04-22T04:58:30;98973.90;;;22.96;27.93
65013;BME280;51715;39.432;-77.518;2023-04-22T05:00:59;98975.42;;;23.21;27.79
65013;BME280;51715;39.432;-77.518;2023-04-22T05:03:27;98972.95;;;23.45;27.66
65013;BME280;51715;39.432;-77.518;2023-04-22T05:05:56;98969.07;;;23.46;27.52
65013;BME280;51715;39.432;-77.518;2023-04-22T05:08:25;98963.46;;;23.41;27.15
65013;BME280;51715;39.432;-77.518;2023-04-22T05:10:54;98964.70;;;23.46;28.10
65013;BME280;51715;39.432;-77.518;2023-04-22T05:13:22;98970.99;;;23.63;27.54
65013;BME280;51715;39.432;-77.518;2023-04-22T05:15:50;98964.81;;;23.48;28.07
65013;BME280;51715;39.432;-77.518;2023-04-22T05:18:20;98964.05;;;23.53;28.46
65013;BME280;51715;39.432;-77.518;2023-04-22T05:20:48;98964.01;;;22.69;28.44
65013;BME280;51715;39.432;-77.518;2023-04-22T05:23:16;98967.51;;;23.32;28.20
65013;BME280;51715;39.432;-77.518;2023-04-22T05:25:45;98968.33;;;23.14;27.77
65013;BME280;51715;39.432;-77.518;2023-04-22T05:28:14;98970.07;;;23.01;28.12
65013;BME280;51715;39.432;-77.518;2023-04-22T05:30:42;98970.83;;;23.47;28.57
65013;BME280;51715;39.432;-77.518;2023-04-22T05:33:10;98973.13;;;22.99;28.42
65013;BME280;51715;39.432;-77.518;2023-04-22T05:35:38;98971.53;;;23.14;28.41
65013;BME280;51715;39.432;-77.518;2023-04-22T05:38:07;98967.51;;;23.07;28.38
65013;BME280;51715;39.432;-77.518;2023-04-22T05:40:35;98965.82;;;22.98;28.74
65013;BME280;51715;39.432;-77.518;2023-04-22T05:43:03;98961.74;;;23.30;28.59
65013;BME280;51715;39.432;-77.518;2023-04-22T05:45:32;98959.39;;;22.52;29.01
65013;BME280;51715;39.432;-77.518;2023-04-22T05:48:01;98948.97;;;22.61;29.06
65013;BME280;51715;39.432;-77.518;2023-04-22T05:50:29;98946.86;;;22.88;28.74
65013;BME280;51715;39.432;-77.518;2023-04-22T05:52:57;98942.32;;;22.31;28.78
65013;BME280;51715;39.432;-77.518;2023-04-22T05:55:25;98945.45;;;22.53;29.21
65013;BME280;51715;39.432;-77.518;2023-04-22T05:57:54;98944.19;;;22.62;29.34
65013;BME280;51715;39.432;-77.518;2023-04-22T06:00:22;98943.93;;;22.93;28.28
65013;BME280;51715;39.432;-77.518;2023-04-22T06:02:50;98939.50;;;22.99;28.51
65013;BME280;51715;39.432;-77.518;2023-04-22T06:05:19;98934.89;;;22.77;28.68
65013;BME280;51715;39.432;-77.518;2023-04-22T06:07:47;98938.06;;;22.90;28.53
65013;BME280;51715;39.432;-77.518;2023-04-22T06:10:15;98934.23;;;22.68;29.40
65013;BME280;51715;39.432;-77.518;2023-04-22T06:12:44;98939.25;;;22.22;29.32
65013;BME280;51715;39.432;-77.518;2023-04-22T06:15:11;98936.74;;;22.42;29.06
65013;BME280;51715;39.432;-77.518;2023-04-22T06:17:39;98935.50;;;22.16;29.63
65013;BME280;51715;39.432;-77.518;2023-04-22T06:20:09;98935.54;;;22.29;29.57
65013;BME280;51715;39.432;-77.518;2023-04-22T06:22:37;98938.55;;;22.36;29.27
65013;BME280;51715;39.432;-77.518;2023-04-22T06:25:07;98940.08;;;22.31;28.98
65013;BME280;51715;39.432;-77.518;2023-04-22T06:27:36;98941.65;;;22.25;29.47
65013;BME280;51715;39.432;-77.518;2023-04-22T06:30:05;98940.81;;;22.53;30.22
65013;BME280;51715;39.432;-77.518;2023-04-22T06:32:34;98939.06;;;21.65;31.05
65013;BME280;51715;39.432;-77.518;2023-04-22T06:35:03;98934.45;;;21.85;30.32
65013;BME280;51715;39.432;-77.518;2023-04-22T06:37:32;98932.77;;;21.73;29.74
65013;BME280;51715;39.432;-77.518;2023-04-22T06:40:00;98930.67;;;21.68;29.06
65013;BME280;51715;39.432;-77.518;2023-04-22T06:42:28;98934.54;;;21.79;30.49
65013;BME280;51715;39.432;-77.518;2023-04-22T06:44:56;98931.96;;;21.86;29.63
65013;BME280;51715;39.432;-77.518;2023-04-22T06:47:25;98932.06;;;21.53;30.23
65013;BME280;51715;39.432;-77.518;2023-04-22T06:49:53;98930.00;;;22.02;29.23
65013;BME280;51715;39.432;-77.518;2023-04-22T06:52:22;98929.17;;;22.11;29.50
65013;BME280;51715;39.432;-77.518;2023-04-22T06:54:50;98927.14;;;22.53;28.57
65013;BME280;51715;39.432;-77.518;2023-04-22T06:57:18;98925.68;;;22.37;28.82
65013;BME280;51715;39.432;-77.518;2023-04-22T06:59:46;98926.94;;;21.90;29.16
65013;BME280;51715;39.432;-77.518;2023-04-22T07:02:14;98925.76;;;21.91;28.69
65013;BME280;51715;39.432;-77.518;2023-04-22T07:04:43;98934.71;;;21.09;29.73
65013;BME280;51715;39.432;-77.518;2023-04-22T07:07:11;98931.00;;;21.93;29.00
65013;BME280;51715;39.432;-77.518;2023-04-22T07:09:40;98927.03;;;22.14;28.72
65013;BME280;51715;39.432;-77.518;2023-04-22T07:12:09;98924.29;;;21.99;28.95
65013;BME280;51715;39.432;-77.518;2023-04-22T07:14:39;98921.53;;;22.12;29.03
65013;BME280;51715;39.432;-77.518;2023-04-22T07:17:09;98919.77;;;22.62;28.01
65013;BME280;51715;39.432;-77.518;2023-04-22T07:19:38;98917.60;;;22.05;28.99
65013;BME280;51715;39.432;-77.518;2023-04-22T07:22:07;98923.98;;;21.82;29.16
65013;BME280;51715;39.432;-77.518;2023-04-22T07:24:35;98920.29;;;22.23;28.92
65013;BME280;51715;39.432;-77.518;2023-04-22T07:27:03;98916.97;;;21.99;28.93
65013;BME280;51715;39.432;-77.518;2023-04-22T07:29:32;98922.26;;;22.25;28.49
65013;BME280;51715;39.432;-77.518;2023-04-22T07:32:00;98921.13;;;21.91;28.49
65013;BME280;51715;39.432;-77.518;2023-04-22T07:34:28;98924.46;;;22.18;27.94
65013;BME280;51715;39.432;-77.518;2023-04-22T07:36:57;98929.60;;;21.71;29.13
65013;BME280;51715;39.432;-77.518;2023-04-22T07:39:25;98932.99;;;22.50;28.15
65013;BME280;51715;39.432;-77.518;2023-04-22T07:41:53;98926.27;;;22.37;28.53
65013;BME280;51715;39.432;-77.518;2023-04-22T07:44:22;98931.33;;;22.54;28.26
65013;BME280;51715;39.432;-77.518;2023-04-22T07:46:51;98929.67;;;22.29;28.50
65013;BME280;51715;39.432;-77.518;2023-04-22T07:49:19;98923.59;;;21.64;29.42
65013;BME280;51715;39.432;-77.518;2023-04-22T07:51:47;98917.86;;;22.06;28.55
65013;BME280;51715;39.432;-77.518;2023-04-22T07:54:16;98916.73;;;22.46;28.45
65013;BME280;51715;39.432;-77.518;2023-04-22T07:56:45;98918.23;;;22.11;28.27
65013;BME280;51715;39.432;-77.518;2023-04-22T07:59:13;98921.02;;;22.24;28.78
65013;BME280;51715;39.432;-77.518;2023-04-22T08:01:41;98926.07;;;22.39;28.51
65013;BME280;51715;39.432;-77.518;2023-04-22T08:04:09;98925.39;;;22.31;28.68
65013;BME280;51715;39.432;-77.518;2023-04-22T08:06:38;98924.31;;;22.44;28.30
65013;BME280;51715;39.432;-77.518;2023-04-22T08:09:06;98923.02;;;22.10;29.61
65013;BME280;51715;39.432;-77.518;2023-04-22T08:11:35;98922.38;;;21.86;29.27
65013;BME280;51715;39.432;-77.518;2023-04-22T08:14:03;98918.88;;;22.15;29.19
65013;BME280;51715;39.432;-77.518;2023-04-22T08:16:31;98918.36;;;21.44;30.12
65013;BME280;51715;39.432;-77.518;2023-04-22T08:19:00;98914.00;;;21.16;30.49
65013;BME280;51715;39.432;-77.518;2023-04-22T08:21:28;98914.32;;;21.23;29.61
65013;BME280;51715;39.432;-77.518;2023-04-22T08:23:56;98909.55;;;21.21;29.37
65013;BME280;51715;39.432;-77.518;2023-04-22T08:26:24;98909.79;;;21.00;29.88
65013;BME280;51715;39.432;-77.518;2023-04-22T08:28:52;98903.17;;;21.79;29.35
65013;BME280;51715;39.432;-77.518;2023-04-22T08:31:20;98905.34;;;21.87;29.21
65013;BME280;51715;39.432;-77.518;2023-04-22T08:33:49;98902.78;;;21.79;29.06
65013;BME280;51715;39.432;-77.518;2023-04-22T08:36:16;98909.09;;;21.43;29.66
65013;BME280;51715;39.432;-77.518;2023-04-22T08:38:45;98906.06;;;21.16;29.78
65013;BME280;51715;39.432;-77.518;2023-04-22T08:41:14;98903.72;;;20.77;30.72
65013;BME280;51715;39.432;-77.518;2023-04-22T08:43:42;98903.21;;;21.32;30.12
65013;BME280;51715;39.432;-77.518;2023-04-22T08:46:11;98903.50;;;21.01;30.55
65013;BME280;51715;39.432;-77.518;2023-04-22T08:48:39;98896.83;;;21.64;29.81
65013;BME280;51715;39.432;-77.518;2023-04-22T08:51:08;98901.33;;;21.24;29.30
65013;BME280;51715;39.432;-77.518;2023-04-22T08:53:37;98898.48;;;21.13;30.09
65013;BME280;51715;39.432;-77.518;2023-04-22T08:56:06;98901.69;;;21.23;30.01
65013;BME280;51715;39.432;-77.518;2023-04-22T08:58:34;98912.83;;;20.47;31.33
65013;BME280;51715;39.432;-77.518;2023-04-22T09:01:03;98918.84;;;19.73;31.95
65013;BME280;51715;39.432;-77.518;2023-04-22T09:03:33;98911.07;;;20.01;32.17
65013;BME280;51715;39.432;-77.518;2023-04-22T09:06:04;98918.68;;;20.57;32.06
65013;BME280;51715;39.432;-77.518;2023-04-22T09:08:32;98916.58;;;20.36;31.51
65013;BME280;51715;39.432;-77.518;2023-04-22T09:11:02;98905.91;;;20.66;29.92
65013;BME280;51715;39.432;-77.518;2023-04-22T09:13:31;98904.10;;;20.57;30.39
65013;BME280;51715;39.432;-77.518;2023-04-22T09:15:59;98913.74;;;20.90;30.00
65013;BME280;51715;39.432;-77.518;2023-04-22T09:18:27;98913.17;;;20.70;30.23
65013;BME280;51715;39.432;-77.518;2023-04-22T09:20:55;98910.80;;;20.16;31.51
65013;BME280;51715;39.432;-77.518;2023-04-22T09:23:24;98907.33;;;20.12;31.77
65013;BME280;51715;39.432;-77.518;2023-04-22T09:25:52;98911.44;;;20.11;32.06
65013;BME280;51715;39.432;-77.518;2023-04-22T09:28:23;98916.23;;;20.36;31.19
65013;BME280;51715;39.432;-77.518;2023-04-22T09:30:52;98920.00;;;20.58;30.54
65013;BME280;51715;39.432;-77.518;2023-04-22T09:33:20;98918.60;;;20.81;30.68
65013;BME280;51715;39.432;-77.518;2023-04-22T09:35:52;98912.28;;;20.35;30.71
65013;BME280;51715;39.432;-77.518;2023-04-22T09:38:21;98910.27;;;20.53;30.31
65013;BME280;51715;39.432;-77.518;2023-04-22T09:40:49;98906.42;;;21.25;29.90
65013;BME280;51715;39.432;-77.518;2023-04-22T09:43:18;98911.43;;;20.04;31.31
65013;BME280;51715;39.432;-77.518;2023-04-22T09:45:46;98910.81;;;20.53;30.15
65013;BME280;51715;39.432;-77.518;2023-04-22T09:48:16;98912.83;;;19.91;31.71
65013;BME280;51715;39.432;-77.518;2023-04-22T09:50:47;98910.12;;;20.11;31.12
65013;BME280;51715;39.432;-77.518;2023-04-22T09:53:18;98905.19;;;20.63;30.55
65013;BME280;51715;39.432;-77.518;2023-04-22T09:55:48;98911.39;;;20.65;30.78
65013;BME280;51715;39.432;-77.518;2023-04-22T09:58:18;98911.01;;;20.98;29.95
65013;BME280;51715;39.432;-77.518;2023-04-22T10:00:49;98907.82;;;21.37;29.58
65013;BME280;51715;39.432;-77.518;2023-04-22T10:03:17;98906.26;;;21.26;30.39
65013;BME280;51715;39.432;-77.518;2023-04-22T10:05:46;98905.86;;;21.67;29.86
65013;BME280;51715;39.432;-77.518;2023-04-22T10:08:15;98911.48;;;21.37;29.27
65013;BME280;51715;39.432;-77.518;2023-04-22T10:10:44;98908.32;;;21.08;30.37
65013;BME280;51715;39.432;-77.518;2023-04-22T10:13:14;98909.58;;;21.21;29.82
65013;BME280;51715;39.432;-77.518;2023-04-22T10:15:47;98908.11;;;21.09;30.61
65013;BME280;51715;39.432;-77.518;2023-04-22T10:18:19;98901.11;;;21.15;29.85
65013;BME280;51715;39.432;-77.518;2023-04-22T10:20:49;98900.40;;;20.94;30.89
65013;BME280;51715;39.432;-77.518;2023-04-22T10:23:20;98905.67;;;19.95;32.56
65013;BME280;51715;39.432;-77.518;2023-04-22T10:25:52;98905.99;;;20.61;31.68
65013;BME280;51715;39.432;-77.518;2023-04-22T10:28:22;98903.77;;;20.83;30.49
65013;BME280;51715;39.432;-77.518;2023-04-22T10:30:51;98908.42;;;20.93;30.90
65013;BME280;51715;39.432;-77.518;2023-04-22T10:33:36;98906.73;;;20.16;31.79
65013;BME280;51715;39.432;-77.518;2023-04-22T10:36:08;98913.91;;;20.43;31.57
65013;BME280;51715;39.432;-77.518;2023-04-22T10:38:38;98921.68;;;20.42;32.18
65013;BME280;51715;39.432;-77.518;2023-04-22T10:41:12;98912.43;;;20.07;31.83
65013;BME280;51715;39.432;-77.518;2023-04-22T10:43:43;98917.45;;;19.57;32.78
65013;BME280;51715;39.432;-77.518;2023-04-22T10:48:48;98914.48;;;20.09;32.29
65013;BME280;51715;39.432;-77.518;2023-04-22T10:51:38;98904.68;;;19.20;33.59
65013;BME280;51715;39.432;-77.518;2023-04-22T10:54:06;98907.40;;;19.91;32.71
65013;BME280;51715;39.432;-77.518;2023-04-22T10:56:59;98906.20;;;20.06;32.73
65013;BME280;51715;39.432;-77.518;2023-04-22T10:59:29;98914.14;;;19.55;34.44
65013;BME280;51715;39.432;-77.518;2023-04-22T11:02:00;98912.00;;;19.77;33.18
65013;BME280;51715;39.432;-77.518;2023-04-22T11:04:28;98903.56;;;19.47;33.15
65013;BME280;51715;39.432;-77.518;2023-04-22T11:08:04;98904.48;;;19.89;33.43
65013;BME280;51715;39.432;-77.518;2023-04-22T11:10:35;98903.91;;;19.97;33.32
65013;BME280;51715;39.432;-77.518;2023-04-22T11:13:05;98905.23;;;20.15;33.59
65013;BME280;51715;39.432;-77.518;2023-04-22T11:15:36;98907.04;;;19.96;33.80
65013;BME280;51715;39.432;-77.518;2023-04-22T11:18:10;98906.68;;;19.78;33.04
65013;BME280;51715;39.432;-77.518;2023-04-22T11:20:39;98907.94;;;20.34;33.33
65013;BME280;51715;39.432;-77.518;2023-04-22T11:23:08;98899.76;;;20.05;32.91
65013;BME280;51715;39.432;-77.518;2023-04-22T11:25:37;98894.86;;;19.36;34.92
65013;BME280;51715;39.432;-77.518;2023-04-22T11:28:05;98888.01;;;19.84;34.23
65013;BME280;51715;39.432;-77.518;2023-04-22T11:30:34;98877.56;;;19.10;35.03
65013;BME280;51715;39.432;-77.518;2023-04-22T11:33:02;98874.89;;;19.76;34.91
65013;BME280;51715;39.432;-77.518;2023-04-22T11:35:32;98866.19;;;19.87;34.54
65013;BME280;51715;39.432;-77.518;2023-04-22T11:38:03;98863.33;;;19.42;35.52
65013;BME280;51715;39.432;-77.518;2023-04-22T11:40:34;98866.60;;;19.31;35.31
65013;BME280;51715;39.432;-77.518;2023-04-22T11:43:04;98868.66;;;20.26;34.11
65013;BME280;51715;39.432;-77.518;2023-04-22T11:45:36;98869.77;;;20.41;33.80
65013;BME280;51715;39.432;-77.518;2023-04-22T11:48:06;98857.54;;;20.06;35.30
65013;BME280;51715;39.432;-77.518;2023-04-22T11:50:36;98853.07;;;20.50;34.63
65013;BME280;51715;39.432;-77.518;2023-04-22T11:53:12;98842.30;;;19.72;35.46
65013;BME280;51715;39.432;-77.518;2023-04-22T11:55:41;98861.03;;;20.27;36.49
65013;BME280;51715;39.432;-77.518;2023-04-22T11:58:12;98857.88;;;20.63;34.57
65013;BME280;51715;39.432;-77.518;2023-04-22T12:00:42;98857.90;;;20.69;33.88
65013;BME280;51715;39.432;-77.518;2023-04-22T12:03:14;98866.79;;;20.08;35.57
65013;BME280;51715;39.432;-77.518;2023-04-22T12:05:44;98872.19;;;20.03;37.57
65013;BME280;51715;39.432;-77.518;2023-04-22T12:08:13;98856.03;;;20.64;35.68
65013;BME280;51715;39.432;-77.518;2023-04-22T12:10:44;98849.93;;;20.61;35.84
65013;BME280;51715;39.432;-77.518;2023-04-22T12:13:21;98868.85;;;19.81;36.31
65013;BME280;51715;39.432;-77.518;2023-04-22T12:15:54;98871.00;;;20.66;36.90
65013;BME280;51715;39.432;-77.518;2023-04-22T12:18:31;98868.58;;;21.05;34.64
65013;BME280;51715;39.432;-77.518;2023-04-22T12:21:00;98869.38;;;21.96;34.06
65013;BME280;51715;39.432;-77.518;2023-04-22T12:23:39;98872.59;;;21.33;35.13
65013;BME280;51715;39.432;-77.518;2023-04-22T12:26:07;98880.74;;;20.66;36.93
65013;BME280;51715;39.432;-77.518;2023-04-22T12:28:37;98884.33;;;21.26;35.75
65013;BME280;51715;39.432;-77.518;2023-04-22T12:31:07;98887.55;;;21.50;35.65
65013;BME280;51715;39.432;-77.518;2023-04-22T12:33:38;98887.58;;;21.61;35.77
65013;BME280;51715;39.432;-77.518;2023-04-22T12:36:06;98890.76;;;22.23;35.50
65013;BME280;51715;39.432;-77.518;2023-04-22T12:38:36;98895.08;;;22.71;34.22
65013;BME280;51715;39.432;-77.518;2023-04-22T12:41:05;98889.78;;;22.69;33.87
65013;BME280;51715;39.432;-77.518;2023-04-22T12:43:34;98889.10;;;22.87;32.90
65013;BME280;51715;39.432;-77.518;2023-04-22T12:46:04;98896.57;;;23.16;34.15
65013;BME280;51715;39.432;-77.518;2023-04-22T12:48:33;98901.31;;;22.00;34.86
65013;BME280;51715;39.432;-77.518;2023-04-22T12:51:02;98904.83;;;21.48;36.11
65013;BME280;51715;39.432;-77.518;2023-04-22T12:53:30;98913.39;;;21.42;35.84
65013;BME280;51715;39.432;-77.518;2023-04-22T12:55:59;98909.94;;;21.02;38.29